EGPE/INV METAR and TAF weather

Enter ICAO airport designator
Station Type Date Time Source
EGPE METAR 2021/09/27 05:50 UTC NOAA

EGPE 270550Z 23004KT 5000 RA FEW006 SCT010 BKN033 11/10 Q0998


Station Type Date Time Source
EGPE Decoded METAR 2021/09/27 05:50 UTC NOAA

Inverness / Dalcross, United Kingdom (EGPE) 57-32N 004-03W 0M
Sep 27, 2021 - 01:50 AM EDT / 2021.09.27 0550 UTC
Wind: from the SW (230 degrees) at 5 MPH (4 KT):0
Visibility: 3 mile(s):0
Sky conditions: mostly cloudy
Weather: rain
Temperature: 51 F (11 C)
Dew Point: 50 F (10 C)
Relative Humidity: 93%
Pressure (altimeter): 29.47 in. Hg (0998 hPa)
ob: EGPE 270550Z 23004KT 5000 RA FEW006 SCT010 BKN033 11/10 Q0998
cycle: 6

Station Type Date Time Source
EGPE TAF UTC NOAA

Error!

Example: see airport list